createdAt,value
2022-12-03T00:01:36.844Z,100077.84
2022-12-03T00:04:09.041Z,100073.77
2022-12-03T00:06:40.962Z,100071.17
2022-12-03T00:09:12.847Z,100075.23
2022-12-03T00:11:44.702Z,100076.25
2022-12-03T00:14:16.498Z,100080.77
2022-12-03T00:16:48.260Z,100082.30
2022-12-03T00:19:20.212Z,100085.73
2022-12-03T00:21:51.951Z,100085.88
2022-12-03T00:24:23.709Z,100087.92
2022-12-03T00:26:55.512Z,100090.80
2022-12-03T00:29:27.257Z,100095.20
2022-12-03T00:31:59.897Z,100095.86
2022-12-03T00:34:31.640Z,100101.63
2022-12-03T00:37:03.393Z,100109.55
2022-12-03T00:39:35.123Z,100106.70
2022-12-03T00:42:07.608Z,100106.81
2022-12-03T00:44:39.581Z,100101.42
2022-12-03T00:47:11.520Z,100098.61
2022-12-03T00:49:43.355Z,100096.52
2022-12-03T00:52:15.107Z,100098.56
2022-12-03T00:54:46.952Z,100097.63
2022-12-03T00:57:18.715Z,100093.85
2022-12-03T00:59:50.459Z,100094.83
2022-12-03T01:02:22.323Z,100088.64
2022-12-03T01:04:54.445Z,100086.44
2022-12-03T01:07:26.611Z,100086.05
2022-12-03T01:09:58.396Z,100087.38
2022-12-03T01:12:30.429Z,100090.86
2022-12-03T01:15:02.544Z,100093.41
2022-12-03T01:17:34.337Z,100091.19
2022-12-03T01:20:07.168Z,100090.06
2022-12-03T01:22:38.927Z,100085.79
2022-12-03T01:25:11.717Z,100079.63
2022-12-03T01:27:43.874Z,100083.45
2022-12-03T01:30:16.577Z,100085.77
2022-12-03T01:32:48.431Z,100089.21
2022-12-03T01:35:20.558Z,100086.47
2022-12-03T01:37:52.288Z,100091.08
2022-12-03T01:40:24.548Z,100086.26
2022-12-03T01:42:56.350Z,100088.05
2022-12-03T01:45:28.139Z,100080.13
2022-12-03T01:47:59.916Z,100078.77
2022-12-03T01:50:34.191Z,100080.04
2022-12-03T01:53:06.258Z,100077.27
2022-12-03T01:55:38.615Z,100076.49
2022-12-03T01:58:12.896Z,100075.55
2022-12-03T02:00:44.770Z,100080.38
2022-12-03T02:03:20.345Z,100077.61
2022-12-03T02:05:52.444Z,100076.98
2022-12-03T02:08:32.363Z,100075.56
2022-12-03T02:11:07.570Z,100075.44
2022-12-03T02:13:39.728Z,100078.98
2022-12-03T02:16:13.950Z,100077.77
2022-12-03T02:18:46.151Z,100080.44
2022-12-03T02:21:26.612Z,100078.48
2022-12-03T02:24:04.196Z,100082.95
2022-12-03T02:26:36.043Z,100086.63
2022-12-03T02:29:07.822Z,100087.03
2022-12-03T02:31:39.665Z,100088.58
2022-12-03T02:34:12.186Z,100087.09
2022-12-03T02:36:43.917Z,100087.35
2022-12-03T02:39:15.771Z,100088.23
2022-12-03T02:42:05.152Z,100087.79
2022-12-03T02:44:37.058Z,100083.50
2022-12-03T02:47:08.986Z,100080.72
2022-12-03T02:49:41.584Z,100075.42
2022-12-03T02:52:13.441Z,100073.91
2022-12-03T02:54:45.316Z,100074.72
2022-12-03T02:57:17.889Z,100078.05
2022-12-03T02:59:49.778Z,100079.02
2022-12-03T03:02:22.451Z,100078.29
2022-12-03T03:04:54.899Z,100080.47
2022-12-03T03:07:27.114Z,100075.32
2022-12-03T03:09:59.113Z,100073.02
2022-12-03T03:12:33.640Z,100069.40
2022-12-03T03:15:13.313Z,100070.23
2022-12-03T03:17:45.640Z,100071.23
2022-12-03T03:20:20.121Z,100070.09
2022-12-03T03:22:51.863Z,100064.94
2022-12-03T03:25:24.811Z,100061.23
2022-12-03T03:27:57.164Z,100067.42
2022-12-03T03:30:28.951Z,100068.40
2022-12-03T03:33:00.937Z,100069.16
2022-12-03T03:35:32.807Z,100071.63
2022-12-03T03:38:05.244Z,100069.43
2022-12-03T03:40:38.045Z,100067.90
2022-12-03T03:43:10.366Z,100069.50
2022-12-03T03:45:42.863Z,100070.77
2022-12-03T03:48:16.083Z,100068.36
2022-12-03T03:50:48.302Z,100065.75
2022-12-03T03:53:20.790Z,100065.54
2022-12-03T03:55:53.972Z,100069.71
2022-12-03T03:58:25.795Z,100073.08
2022-12-03T04:00:57.595Z,100077.56
2022-12-03T04:03:29.860Z,100078.45
2022-12-03T04:06:01.977Z,100080.48
2022-12-03T04:08:33.861Z,100081.86
2022-12-03T04:11:23.285Z,100083.74
2022-12-03T04:13:54.994Z,100083.60
2022-12-03T04:16:26.946Z,100080.63
2022-12-03T04:18:58.794Z,100079.47
2022-12-03T04:21:48.069Z,100075.38
2022-12-03T04:24:19.824Z,100078.30
2022-12-03T04:27:09.309Z,100076.38
2022-12-03T04:29:41.819Z,100076.54
2022-12-03T04:32:31.124Z,100075.46
2022-12-03T04:35:20.729Z,100077.01
2022-12-03T04:37:52.498Z,100079.96
2022-12-03T04:40:41.628Z,100079.63
2022-12-03T04:43:13.845Z,100075.62
2022-12-03T04:45:45.672Z,100077.05
2022-12-03T04:48:17.985Z,100080.56
2022-12-03T04:50:50.229Z,100078.41
2022-12-03T04:53:22.070Z,100076.70
2022-12-03T04:55:53.866Z,100078.67
2022-12-03T04:58:25.609Z,100079.59
2022-12-03T05:00:58.599Z,100078.60
2022-12-03T05:03:30.489Z,100077.21
2022-12-03T05:06:02.296Z,100075.36
2022-12-03T05:08:34.278Z,100074.09
2022-12-03T05:11:06.370Z,100077.08
2022-12-03T05:13:38.398Z,100079.30
2022-12-03T05:16:11.082Z,100074.42
2022-12-03T05:18:43.077Z,100078.44
2022-12-03T05:21:14.890Z,100077.80
2022-12-03T05:23:46.743Z,100079.84
2022-12-03T05:26:19.885Z,100083.86
2022-12-03T05:28:51.824Z,100084.92
2022-12-03T05:31:23.640Z,100089.55
2022-12-03T05:33:55.856Z,100090.05
2022-12-03T05:36:27.968Z,100090.31
2022-12-03T05:38:59.697Z,100087.79
2022-12-03T05:42:03.322Z,100087.46
2022-12-03T05:44:35.670Z,100089.60
2022-12-03T05:47:07.538Z,100094.02
2022-12-03T05:49:39.301Z,100094.41
2022-12-03T05:52:11.046Z,100093.42
2022-12-03T05:54:42.863Z,100090.30
2022-12-03T05:57:14.854Z,100089.66
2022-12-03T05:59:46.628Z,100088.13
2022-12-03T06:02:18.557Z,100089.78
2022-12-03T06:04:50.630Z,100083.51
2022-12-03T06:07:22.519Z,100085.09
2022-12-03T06:09:54.510Z,100088.40
2022-12-03T06:12:26.263Z,100091.91
2022-12-03T06:14:58.051Z,100089.86
2022-12-03T06:17:29.985Z,100093.61
2022-12-03T06:20:01.772Z,100094.41
2022-12-03T06:22:33.819Z,100097.13
2022-12-03T06:25:06.880Z,100098.54
2022-12-03T06:27:39.262Z,100101.31
2022-12-03T06:30:13.337Z,100102.88
2022-12-03T06:32:45.364Z,100101.58
2022-12-03T06:35:17.337Z,100103.27
2022-12-03T06:37:49.392Z,100101.02
2022-12-03T06:40:21.430Z,100102.55
2022-12-03T06:42:53.553Z,100103.42
2022-12-03T06:45:25.286Z,100102.08
2022-12-03T06:47:57.031Z,100104.19
2022-12-03T06:50:28.823Z,100100.20
2022-12-03T06:53:00.555Z,100103.47
2022-12-03T06:55:32.313Z,100107.38
2022-12-03T06:58:04.106Z,100114.32
2022-12-03T07:00:35.907Z,100116.60
2022-12-03T07:03:08.250Z,100116.45
2022-12-03T07:05:40.224Z,100119.16
2022-12-03T07:08:12.126Z,100118.23
2022-12-03T07:10:43.912Z,100113.29
2022-12-03T07:13:15.685Z,100115.05
2022-12-03T07:15:50.038Z,100115.10
2022-12-03T07:18:21.838Z,100118.50
2022-12-03T07:20:53.564Z,100117.20
2022-12-03T07:23:25.287Z,100112.27
2022-12-03T07:25:57.018Z,100107.79
2022-12-03T07:28:28.848Z,100102.98
2022-12-03T07:31:00.834Z,100098.55
2022-12-03T07:33:32.705Z,100094.48
2022-12-03T07:36:04.574Z,100094.16
2022-12-03T07:38:36.331Z,100088.31
2022-12-03T07:41:08.525Z,100088.42
2022-12-03T07:43:40.606Z,100085.16
2022-12-03T07:46:13.088Z,100086.46
2022-12-03T07:48:44.973Z,100091.31
2022-12-03T07:51:16.728Z,100097.61
2022-12-03T07:53:48.441Z,100101.75
2022-12-03T07:56:20.208Z,100103.91
2022-12-03T07:58:52.080Z,100100.33
2022-12-03T08:01:24.006Z,100100.73
2022-12-03T08:03:56.082Z,100098.98
2022-12-03T08:06:27.893Z,100100.64
2022-12-03T08:08:59.705Z,100108.25
2022-12-03T08:11:31.822Z,100112.33
2022-12-03T08:14:11.437Z,100119.08
2022-12-03T08:16:44.715Z,100121.33
2022-12-03T08:19:19.666Z,100115.16
2022-12-03T08:21:54.117Z,100113.54
2022-12-03T08:24:29.619Z,100118.00
2022-12-03T08:27:02.134Z,100123.92
2022-12-03T08:29:34.026Z,100127.52
2022-12-03T08:32:11.491Z,100129.48
2022-12-03T08:34:46.068Z,100129.19
2022-12-03T08:37:20.404Z,100131.70
2022-12-03T08:39:55.785Z,100133.00
2022-12-03T08:42:45.056Z,100133.42
2022-12-03T08:45:40.538Z,100135.86
2022-12-03T08:48:32.505Z,100140.64
2022-12-03T08:51:10.724Z,100142.73
2022-12-03T08:53:48.483Z,100144.66
2022-12-03T08:56:25.890Z,100139.03
2022-12-03T08:58:59.297Z,100137.21
2022-12-03T09:01:39.253Z,100135.13
2022-12-03T09:04:23.880Z,100135.04
2022-12-03T09:06:57.242Z,100131.95
2022-12-03T09:09:29.599Z,100135.30
2022-12-03T09:12:03.044Z,100130.75
2022-12-03T09:14:34.932Z,100119.20
2022-12-03T09:17:07.056Z,100115.06
2022-12-03T09:19:46.236Z,100117.48
2022-12-03T09:22:19.213Z,100119.05
2022-12-03T09:24:51.208Z,100117.02
2022-12-03T09:27:23.627Z,100113.70
2022-12-03T09:29:55.551Z,100109.02
2022-12-03T09:32:27.354Z,100101.42
2022-12-03T09:34:59.509Z,100103.82
2022-12-03T09:37:31.543Z,100103.23
2022-12-03T09:40:03.745Z,100095.36
2022-12-03T09:42:36.006Z,100094.02
2022-12-03T09:45:12.648Z,100093.10
2022-12-03T09:47:48.390Z,100096.59
2022-12-03T09:50:23.837Z,100093.48
2022-12-03T09:53:03.552Z,100088.48
2022-12-03T09:55:35.695Z,100089.23
2022-12-03T09:58:13.717Z,100085.09
2022-12-03T10:00:48.522Z,100080.47
2022-12-03T10:03:28.172Z,100085.09
2022-12-03T10:06:01.570Z,100087.60
2022-12-03T10:08:33.695Z,100088.98
2022-12-03T10:11:06.380Z,100092.02
2022-12-03T10:13:38.722Z,100093.23
2022-12-03T10:16:16.315Z,100093.88
2022-12-03T10:18:51.221Z,100090.38
2022-12-03T10:21:32.340Z,100093.27
2022-12-03T10:24:22.606Z,100090.65
2022-12-03T10:26:56.122Z,100089.33
2022-12-03T10:29:33.901Z,100088.35
2022-12-03T10:32:08.980Z,100093.05
2022-12-03T10:34:42.914Z,100093.11
2022-12-03T10:37:20.292Z,100091.64
2022-12-03T10:40:01.565Z,100088.81
2022-12-03T10:42:36.621Z,100086.30
2022-12-03T10:45:24.976Z,100084.39
2022-12-03T10:48:12.219Z,100086.00
2022-12-03T10:50:51.991Z,100086.23
2022-12-03T10:53:28.228Z,100087.16
2022-12-03T10:56:04.156Z,100085.95
2022-12-03T10:58:38.381Z,100079.63
2022-12-03T11:01:17.476Z,100075.06
2022-12-03T11:03:50.108Z,100068.87
2022-12-03T11:06:24.085Z,100066.70
2022-12-03T11:09:01.419Z,100065.41
2022-12-03T11:11:35.779Z,100061.86
2022-12-03T11:14:08.366Z,100063.98
2022-12-03T11:17:10.147Z,100059.83
2022-12-03T11:19:47.633Z,100058.46
2022-12-03T11:22:42.482Z,100054.73
2022-12-03T11:25:50.311Z,100051.63
2022-12-03T11:28:46.638Z,100054.52
2022-12-03T11:31:39.735Z,100055.08
2022-12-03T11:34:49.135Z,100056.04
2022-12-03T11:37:31.261Z,100056.23
2022-12-03T11:40:39.061Z,100056.77
2022-12-03T11:43:12.461Z,100058.82
2022-12-03T11:45:45.775Z,100057.56
2022-12-03T11:48:18.826Z,100057.73
2022-12-03T11:50:55.023Z,100059.34
2022-12-03T11:53:28.915Z,100059.60
2022-12-03T11:56:09.241Z,100055.98
2022-12-03T11:58:43.773Z,100056.67
2022-12-03T12:01:17.207Z,100053.29
2022-12-03T12:03:51.079Z,100052.27
2022-12-03T12:06:23.694Z,100051.57
2022-12-03T12:09:00.524Z,100046.70
2022-12-03T12:11:33.657Z,100049.56
2022-12-03T12:14:07.267Z,100047.02
2022-12-03T12:16:53.478Z,100044.45
2022-12-03T12:19:33.378Z,100046.38
2022-12-03T12:22:20.478Z,100050.92
2022-12-03T12:24:54.408Z,100048.36
2022-12-03T12:27:32.454Z,100046.98
2022-12-03T12:30:03.535Z,100048.59
2022-12-03T12:32:42.040Z,100051.15
2022-12-03T12:35:20.564Z,100047.84
2022-12-03T12:37:59.639Z,100048.15
2022-12-03T12:40:34.287Z,100046.92
2022-12-03T12:43:14.161Z,100042.14
2022-12-03T12:45:47.402Z,100038.75
2022-12-03T12:48:26.561Z,100036.81
2022-12-03T12:51:10.330Z,100036.08
2022-12-03T12:53:43.767Z,100029.92
2022-12-03T12:56:24.044Z,100027.79
2022-12-03T12:58:58.117Z,100026.64
2022-12-03T13:01:33.236Z,100029.46
2022-12-03T13:04:13.370Z,100027.08
2022-12-03T13:06:45.999Z,100023.50
2022-12-03T13:09:21.764Z,100025.44
2022-12-03T13:11:58.210Z,100025.06
2022-12-03T13:14:36.672Z,100024.52
2022-12-03T13:17:18.443Z,100026.08
2022-12-03T13:19:58.204Z,100029.94
2022-12-03T13:22:35.708Z,100032.62
2022-12-03T13:25:58.934Z,100031.59
2022-12-03T13:28:25.723Z,100026.23
2022-12-03T13:30:58.152Z,100030.65
2022-12-03T13:33:30.929Z,100033.70
2022-12-03T13:36:03.996Z,100035.73
2022-12-03T13:38:36.468Z,100036.19
2022-12-03T13:41:35.219Z,100037.69
2022-12-03T13:44:16.500Z,100041.39
2022-12-03T13:46:48.352Z,100040.56
2022-12-03T13:49:23.958Z,100046.23
2022-12-03T13:51:55.987Z,100050.35
2022-12-03T13:54:31.526Z,100049.96
2022-12-03T13:57:06.074Z,100053.98
2022-12-03T13:59:38.207Z,100062.14
2022-12-03T14:02:10.376Z,100060.42
2022-12-03T14:04:42.526Z,100057.25
2022-12-03T14:07:14.441Z,100058.03
2022-12-03T14:09:46.355Z,100059.13
2022-12-03T14:12:27.433Z,100053.83
2022-12-03T14:14:59.312Z,100058.23
2022-12-03T14:17:31.898Z,100059.20
2022-12-03T14:20:04.272Z,100062.48
2022-12-03T14:22:38.321Z,100067.05
2022-12-03T14:25:11.657Z,100069.75
2022-12-03T14:27:43.671Z,100072.30
2022-12-03T14:30:16.902Z,100070.48
2022-12-03T14:32:48.722Z,100072.08
2022-12-03T14:35:20.570Z,100072.38
2022-12-03T14:37:52.715Z,100068.98
2022-12-03T14:40:24.727Z,100074.33
2022-12-03T14:42:56.513Z,100074.95
2022-12-03T14:45:30.072Z,100073.75
2022-12-03T14:48:02.006Z,100073.56
2022-12-03T14:50:33.955Z,100073.23
2022-12-03T14:53:05.735Z,100080.39
2022-12-03T14:55:37.756Z,100080.46
2022-12-03T14:58:09.725Z,100081.00
2022-12-03T15:00:41.583Z,100086.47
2022-12-03T15:03:14.238Z,100088.52
2022-12-03T15:05:46.411Z,100089.79
2022-12-03T15:08:18.269Z,100089.36
2022-12-03T15:10:50.273Z,100090.93
2022-12-03T15:13:22.115Z,100092.09
2022-12-03T15:15:54.036Z,100095.02
2022-12-03T15:18:26.210Z,100096.34
2022-12-03T15:20:58.082Z,100096.92
2022-12-03T15:23:30.205Z,100098.48
2022-12-03T15:26:02.130Z,100100.40
2022-12-03T15:28:33.995Z,100099.27
2022-12-03T15:31:05.990Z,100103.25
2022-12-03T15:33:37.917Z,100110.41
2022-12-03T15:36:10.746Z,100110.73
2022-12-03T15:38:42.513Z,100115.27
2022-12-03T15:41:28.793Z,100120.30
2022-12-03T15:44:03.136Z,100119.07
2022-12-03T15:46:35.091Z,100121.48
2022-12-03T15:49:07.025Z,100125.51
2022-12-03T15:51:38.792Z,100124.88
2022-12-03T15:54:12.444Z,100130.42
2022-12-03T15:56:44.482Z,100131.66
2022-12-03T15:59:16.401Z,100133.88
2022-12-03T16:01:51.113Z,100131.52
2022-12-03T16:04:23.597Z,100133.89
2022-12-03T16:06:55.379Z,100137.92
2022-12-03T16:09:27.909Z,100136.86
2022-12-03T16:11:59.691Z,100132.60
2022-12-03T16:14:32.009Z,100130.34
2022-12-03T16:17:03.922Z,100131.46
2022-12-03T16:19:36.530Z,100134.89
2022-12-03T16:22:08.475Z,100140.05
2022-12-03T16:24:40.721Z,100141.27
2022-12-03T16:27:12.489Z,100138.71
2022-12-03T16:29:44.379Z,100139.68
2022-12-03T16:32:16.301Z,100139.64
2022-12-03T16:34:48.209Z,100141.83
2022-12-03T16:37:19.952Z,100140.54
2022-12-03T16:39:55.825Z,100141.94
2022-12-03T16:42:28.369Z,100141.75
2022-12-03T16:45:23.186Z,100138.36
2022-12-03T16:47:54.945Z,100139.34
2022-12-03T16:50:29.910Z,100143.61
2022-12-03T16:53:02.572Z,100145.55
2022-12-03T16:55:34.356Z,100149.43
2022-12-03T16:58:06.419Z,100150.77
2022-12-03T17:00:38.158Z,100152.14
2022-12-03T17:03:09.945Z,100155.14
2022-12-03T17:05:42.472Z,100152.58
2022-12-03T17:08:15.079Z,100152.45
2022-12-03T17:10:47.210Z,100152.16
2022-12-03T17:13:19.260Z,100153.80
2022-12-03T17:15:51.152Z,100159.47
2022-12-03T17:18:23.008Z,100160.79
2022-12-03T17:20:55.156Z,100165.77
2022-12-03T17:23:27.024Z,100171.85
2022-12-03T17:25:58.793Z,100171.80
2022-12-03T17:28:30.742Z,100171.69
2022-12-03T17:31:02.732Z,100175.94
2022-12-03T17:33:35.096Z,100175.27
2022-12-03T17:36:08.748Z,100175.88
2022-12-03T17:38:40.742Z,100172.77
2022-12-03T17:41:12.649Z,100169.50
2022-12-03T17:43:44.666Z,100167.94
2022-12-03T17:46:16.783Z,100170.34
2022-12-03T17:48:49.115Z,100172.07
2022-12-03T17:51:21.369Z,100177.17
2022-12-03T17:53:53.149Z,100176.92
2022-12-03T17:56:25.509Z,100177.23
2022-12-03T17:58:58.662Z,100176.02
2022-12-03T18:01:30.523Z,100178.90
2022-12-03T18:04:02.705Z,100179.83
2022-12-03T18:06:34.835Z,100181.90
2022-12-03T18:09:07.512Z,100183.77
2022-12-03T18:11:39.549Z,100180.70
2022-12-03T18:14:12.729Z,100179.71
2022-12-03T18:16:44.660Z,100178.87
2022-12-03T18:19:16.414Z,100179.91
2022-12-03T18:21:48.482Z,100177.81
2022-12-03T18:24:20.400Z,100175.77
2022-12-03T18:26:52.562Z,100169.94
2022-12-03T18:29:25.410Z,100170.38
2022-12-03T18:31:57.516Z,100170.76
2022-12-03T18:34:29.382Z,100163.02
2022-12-03T18:37:01.237Z,100162.41
2022-12-03T18:39:36.790Z,100161.68
2022-12-03T18:42:17.485Z,100159.11
2022-12-03T18:44:50.834Z,100163.19
2022-12-03T18:47:24.428Z,100166.72
2022-12-03T18:49:56.906Z,100163.27
2022-12-03T18:52:29.426Z,100168.63
2022-12-03T18:55:01.398Z,100164.90
2022-12-03T18:57:33.993Z,100164.02
2022-12-03T19:00:13.232Z,100167.69
2022-12-03T19:05:38.258Z,100167.41
2022-12-03T19:08:14.865Z,100166.67
2022-12-03T19:10:55.687Z,100167.64
2022-12-03T19:13:28.664Z,100165.98
2022-12-03T19:16:04.730Z,100170.98
2022-12-03T19:18:36.837Z,100176.50
2022-12-03T19:21:13.551Z,100176.52
2022-12-03T19:24:09.903Z,100178.72
2022-12-03T19:26:37.597Z,100175.52
2022-12-03T19:29:10.755Z,100177.64
2022-12-03T19:31:42.756Z,100179.09
2022-12-03T19:34:14.702Z,100180.45
2022-12-03T19:36:47.647Z,100181.79
2022-12-03T19:39:19.811Z,100182.79
2022-12-03T19:41:51.705Z,100181.89
2022-12-03T19:44:23.626Z,100180.61
2022-12-03T19:46:56.917Z,100186.48
2022-12-03T19:49:29.051Z,100184.73
2022-12-03T19:52:01.004Z,100186.52
2022-12-03T19:54:33.424Z,100191.70
2022-12-03T19:57:05.489Z,100193.59
2022-12-03T19:59:37.794Z,100188.73
2022-12-03T20:02:10.102Z,100184.91
2022-12-03T20:04:42.203Z,100185.25
2022-12-03T20:07:13.986Z,100181.42
2022-12-03T20:09:46.060Z,100173.96
2022-12-03T20:12:18.195Z,100179.25
2022-12-03T20:14:50.167Z,100190.02
2022-12-03T20:17:22.203Z,100192.97
2022-12-03T20:19:54.171Z,100194.80
2022-12-03T20:22:26.585Z,100187.07
2022-12-03T20:24:58.825Z,100188.01
2022-12-03T20:27:30.781Z,100182.63
2022-12-03T20:30:02.647Z,100182.75
2022-12-03T20:32:38.228Z,100183.62
2022-12-03T20:35:12.921Z,100182.23
2022-12-03T20:37:44.866Z,100187.77
2022-12-03T20:40:16.966Z,100188.91
2022-12-03T20:42:50.515Z,100189.20
2022-12-03T20:45:22.448Z,100186.04
2022-12-03T20:47:54.317Z,100190.17
2022-12-03T20:50:26.397Z,100191.84
2022-12-03T20:53:23.186Z,100194.25
2022-12-03T20:55:57.997Z,100189.35
2022-12-03T20:58:30.730Z,100188.63
2022-12-03T21:01:15.979Z,100186.23
2022-12-03T21:03:49.249Z,100187.80
2022-12-03T21:06:22.175Z,100179.92
2022-12-03T21:08:55.504Z,100178.82
2022-12-03T21:11:31.639Z,100181.63
2022-12-03T21:14:04.559Z,100182.54
2022-12-03T21:17:07.137Z,100183.85
2022-12-03T21:19:31.422Z,100183.24
2022-12-03T21:22:03.492Z,100187.04
2022-12-03T21:24:35.730Z,100185.55
2022-12-03T21:27:07.734Z,100178.58
2022-12-03T21:29:39.881Z,100172.38
2022-12-03T21:32:11.768Z,100168.55
2022-12-03T21:34:43.794Z,100168.67
2022-12-03T21:37:15.848Z,100170.73
2022-12-03T21:39:47.969Z,100172.91
2022-12-03T21:42:36.013Z,100170.59
2022-12-03T21:45:10.151Z,100169.42
2022-12-03T21:47:42.264Z,100174.99
2022-12-03T21:50:14.596Z,100173.66
2022-12-03T21:52:46.761Z,100179.23
2022-12-03T21:55:18.762Z,100177.88
2022-12-03T21:57:50.818Z,100179.79
2022-12-03T22:00:23.846Z,100177.90
2022-12-03T22:02:55.691Z,100182.08
2022-12-03T22:05:27.596Z,100181.98
2022-12-03T22:07:59.498Z,100186.61
2022-12-03T22:10:35.251Z,100187.77
2022-12-03T22:13:07.040Z,100184.30
2022-12-03T22:15:40.763Z,100179.39
2022-12-03T22:18:12.633Z,100175.47
2022-12-03T22:20:45.909Z,100171.54
2022-12-03T22:23:17.666Z,100167.93
2022-12-03T22:25:57.917Z,100167.25
2022-12-03T22:28:29.956Z,100163.05
2022-12-03T22:31:05.946Z,100166.58
2022-12-03T22:33:38.946Z,100173.57
2022-12-03T22:36:20.090Z,100175.50
2022-12-03T22:38:53.070Z,100173.56
2022-12-03T22:41:24.807Z,100173.79
2022-12-03T22:43:56.597Z,100174.40
2022-12-03T22:46:28.434Z,100173.30
2022-12-03T22:49:06.393Z,100175.86
2022-12-03T22:51:38.691Z,100174.00
2022-12-03T22:54:11.604Z,100174.96
2022-12-03T22:56:43.582Z,100172.85
2022-12-03T22:59:15.439Z,100174.31
2022-12-03T23:01:47.487Z,100173.09
2022-12-03T23:04:19.369Z,100174.57
2022-12-03T23:06:51.196Z,100179.30
2022-12-03T23:09:23.015Z,100184.27
2022-12-03T23:11:55.140Z,100179.52
2022-12-03T23:14:27.111Z,100181.92
2022-12-03T23:16:58.893Z,100184.91
2022-12-03T23:19:30.742Z,100182.58
2022-12-03T23:22:02.483Z,100179.34
2022-12-03T23:24:34.511Z,100178.42
2022-12-03T23:27:06.379Z,100174.52
2022-12-03T23:29:38.234Z,100174.86
2022-12-03T23:32:09.988Z,100168.95
2022-12-03T23:34:41.902Z,100165.47
2022-12-03T23:37:13.949Z,100164.20
2022-12-03T23:39:48.155Z,100160.50
2022-12-03T23:42:19.924Z,100157.59
2022-12-03T23:44:51.663Z,100156.10
2022-12-03T23:47:23.396Z,100156.10
2022-12-03T23:49:55.432Z,100158.27
2022-12-03T23:52:27.304Z,100163.18
2022-12-03T23:54:59.073Z,100167.63
2022-12-03T23:57:31.095Z,100172.29
